sensor_id;sensor_type;location;lat;lon;timestamp;temperature;humidity
20777;DHT22;10548;47.504;8.248;2022-08-21T00:00:15;17.00;99.90
20777;DHT22;10548;47.504;8.248;2022-08-21T00:02:55;16.90;99.90
20777;DHT22;10548;47.504;8.248;2022-08-21T00:05:25;16.90;99.90
20777;DHT22;10548;47.504;8.248;2022-08-21T00:07:53;16.80;99.90
20777;DHT22;10548;47.504;8.248;2022-08-21T00:10:20;16.80;99.90
20777;DHT22;10548;47.504;8.248;2022-08-21T00:12:47;16.80;99.90
20777;DHT22;10548;47.504;8.248;2022-08-21T00:15:20;16.80;99.90
20777;DHT22;10548;47.504;8.248;2022-08-21T00:17:48;16.80;99.90
20777;DHT22;10548;47.504;8.248;2022-08-21T00:20:16;16.70;99.90
20777;DHT22;10548;47.504;8.248;2022-08-21T00:22:44;16.70;99.90
20777;DHT22;10548;47.504;8.248;2022-08-21T00:25:13;16.70;99.90
20777;DHT22;10548;47.504;8.248;2022-08-21T00:27:41;16.70;99.90
20777;DHT22;10548;47.504;8.248;2022-08-21T00:30:15;16.70;99.90
20777;DHT22;10548;47.504;8.248;2022-08-21T00:32:49;16.80;99.90
20777;DHT22;10548;47.504;8.248;2022-08-21T00:35:18;16.80;99.90
20777;DHT22;10548;47.504;8.248;2022-08-21T00:37:46;16.90;99.90
20777;DHT22;10548;47.504;8.248;2022-08-21T00:40:16;16.80;99.90
20777;DHT22;10548;47.504;8.248;2022-08-21T00:42:45;16.80;99.90
20777;DHT22;10548;47.504;8.248;2022-08-21T00:45:21;16.90;99.90
20777;DHT22;10548;47.504;8.248;2022-08-21T00:47:49;16.90;99.90
20777;DHT22;10548;47.504;8.248;2022-08-21T00:50:18;17.00;99.90
20777;DHT22;10548;47.504;8.248;2022-08-21T00:52:49;16.90;99.90
20777;DHT22;10548;47.504;8.248;2022-08-21T00:55:19;17.00;99.90
20777;DHT22;10548;47.504;8.248;2022-08-21T00:57:52;17.00;99.90
20777;DHT22;10548;47.504;8.248;2022-08-21T01:00:28;17.00;99.90
20777;DHT22;10548;47.504;8.248;2022-08-21T01:02:57;17.00;99.90
20777;DHT22;10548;47.504;8.248;2022-08-21T01:05:26;16.90;99.90
20777;DHT22;10548;47.504;8.248;2022-08-21T01:07:55;16.80;99.90
20777;DHT22;10548;47.504;8.248;2022-08-21T01:10:23;16.80;99.90
20777;DHT22;10548;47.504;8.248;2022-08-21T01:12:52;16.80;99.90
20777;DHT22;10548;47.504;8.248;2022-08-21T01:15:21;16.80;99.90
20777;DHT22;10548;47.504;8.248;2022-08-21T01:17:49;16.80;99.90
20777;DHT22;10548;47.504;8.248;2022-08-21T01:20:17;16.80;99.90
20777;DHT22;10548;47.504;8.248;2022-08-21T01:22:44;16.70;99.90
20777;DHT22;10548;47.504;8.248;2022-08-21T01:25:14;16.70;99.90
20777;DHT22;10548;47.504;8.248;2022-08-21T01:27:42;16.80;99.90
20777;DHT22;10548;47.504;8.248;2022-08-21T01:30:15;16.70;99.90
20777;DHT22;10548;47.504;8.248;2022-08-21T01:32:44;16.70;99.90
20777;DHT22;10548;47.504;8.248;2022-08-21T01:35:11;16.70;99.90
20777;DHT22;10548;47.504;8.248;2022-08-21T01:37:39;16.70;99.90
20777;DHT22;10548;47.504;8.248;2022-08-21T01:40:08;16.60;99.90
20777;DHT22;10548;47.504;8.248;2022-08-21T01:42:36;16.50;99.90
20777;DHT22;10548;47.504;8.248;2022-08-21T01:45:04;16.50;99.90
20777;DHT22;10548;47.504;8.248;2022-08-21T01:47:31;16.50;99.90
20777;DHT22;10548;47.504;8.248;2022-08-21T01:49:59;16.50;99.90
20777;DHT22;10548;47.504;8.248;2022-08-21T01:52:26;16.50;99.90
20777;DHT22;10548;47.504;8.248;2022-08-21T01:54:53;16.50;99.90
20777;DHT22;10548;47.504;8.248;2022-08-21T01:57:21;16.70;99.90
20777;DHT22;10548;47.504;8.248;2022-08-21T01:59:52;16.70;99.90
20777;DHT22;10548;47.504;8.248;2022-08-21T02:02:19;16.80;99.90
20777;DHT22;10548;47.504;8.248;2022-08-21T02:04:46;16.80;99.90
20777;DHT22;10548;47.504;8.248;2022-08-21T02:07:13;16.80;99.90
20777;DHT22;10548;47.504;8.248;2022-08-21T02:09:42;16.80;99.90
20777;DHT22;10548;47.504;8.248;2022-08-21T02:12:10;16.80;99.90
20777;DHT22;10548;47.504;8.248;2022-08-21T02:14:38;16.90;99.90
20777;DHT22;10548;47.504;8.248;2022-08-21T02:17:05;16.90;99.90
20777;DHT22;10548;47.504;8.248;2022-08-21T02:19:36;16.90;99.90
20777;DHT22;10548;47.504;8.248;2022-08-21T02:22:08;16.90;99.90
20777;DHT22;10548;47.504;8.248;2022-08-21T02:24:36;16.90;99.90
20777;DHT22;10548;47.504;8.248;2022-08-21T02:27:20;16.90;99.90
20777;DHT22;10548;47.504;8.248;2022-08-21T02:29:54;16.90;99.90
20777;DHT22;10548;47.504;8.248;2022-08-21T02:32:22;16.90;99.90
20777;DHT22;10548;47.504;8.248;2022-08-21T02:34:49;16.90;99.90
20777;DHT22;10548;47.504;8.248;2022-08-21T02:37:16;16.90;99.90
20777;DHT22;10548;47.504;8.248;2022-08-21T02:39:43;16.90;99.90
20777;DHT22;10548;47.504;8.248;2022-08-21T02:42:10;16.90;99.90
20777;DHT22;10548;47.504;8.248;2022-08-21T02:44:37;16.90;99.90
20777;DHT22;10548;47.504;8.248;2022-08-21T02:47:04;16.80;99.90
20777;DHT22;10548;47.504;8.248;2022-08-21T02:49:31;16.80;99.90
20777;DHT22;10548;47.504;8.248;2022-08-21T02:51:59;16.80;99.90
20777;DHT22;10548;47.504;8.248;2022-08-21T02:54:26;16.90;99.90
20777;DHT22;10548;47.504;8.248;2022-08-21T02:56:53;16.90;99.90
20777;DHT22;10548;47.504;8.248;2022-08-21T02:59:20;16.90;99.90
20777;DHT22;10548;47.504;8.248;2022-08-21T03:01:47;16.90;99.90
20777;DHT22;10548;47.504;8.248;2022-08-21T03:04:14;16.90;99.90
20777;DHT22;10548;47.504;8.248;2022-08-21T03:06:41;16.90;99.90
20777;DHT22;10548;47.504;8.248;2022-08-21T03:09:09;16.80;99.90
20777;DHT22;10548;47.504;8.248;2022-08-21T03:11:36;16.80;99.90
20777;DHT22;10548;47.504;8.248;2022-08-21T03:14:03;16.80;99.90
20777;DHT22;10548;47.504;8.248;2022-08-21T03:16:31;16.80;99.90
20777;DHT22;10548;47.504;8.248;2022-08-21T03:19:01;16.80;99.90
20777;DHT22;10548;47.504;8.248;2022-08-21T03:21:29;16.90;99.90
20777;DHT22;10548;47.504;8.248;2022-08-21T03:23:56;16.90;99.90
20777;DHT22;10548;47.504;8.248;2022-08-21T03:26:23;16.80;99.90
20777;DHT22;10548;47.504;8.248;2022-08-21T03:28:52;16.80;99.90
20777;DHT22;10548;47.504;8.248;2022-08-21T03:31:19;16.90;99.90
20777;DHT22;10548;47.504;8.248;2022-08-21T03:33:48;16.80;99.90
20777;DHT22;10548;47.504;8.248;2022-08-21T03:36:15;16.70;99.90
20777;DHT22;10548;47.504;8.248;2022-08-21T03:38:42;16.70;99.90
20777;DHT22;10548;47.504;8.248;2022-08-21T03:41:09;16.60;99.90
20777;DHT22;10548;47.504;8.248;2022-08-21T03:43:37;16.60;99.90
20777;DHT22;10548;47.504;8.248;2022-08-21T03:46:06;16.60;99.90
20777;DHT22;10548;47.504;8.248;2022-08-21T03:48:35;16.60;99.90
20777;DHT22;10548;47.504;8.248;2022-08-21T03:51:02;16.60;99.90
20777;DHT22;10548;47.504;8.248;2022-08-21T03:53:30;16.60;99.90
20777;DHT22;10548;47.504;8.248;2022-08-21T03:55:57;16.60;99.90
20777;DHT22;10548;47.504;8.248;2022-08-21T03:58:27;16.60;99.90
20777;DHT22;10548;47.504;8.248;2022-08-21T04:00:56;16.60;99.90
20777;DHT22;10548;47.504;8.248;2022-08-21T04:03:25;16.50;99.90
20777;DHT22;10548;47.504;8.248;2022-08-21T04:05:52;16.50;99.90
20777;DHT22;10548;47.504;8.248;2022-08-21T04:08:19;16.30;99.90
20777;DHT22;10548;47.504;8.248;2022-08-21T04:10:49;16.30;99.90
20777;DHT22;10548;47.504;8.248;2022-08-21T04:13:16;16.20;99.90
20777;DHT22;10548;47.504;8.248;2022-08-21T04:15:44;16.20;99.90
20777;DHT22;10548;47.504;8.248;2022-08-21T04:18:11;16.20;99.90
20777;DHT22;10548;47.504;8.248;2022-08-21T04:20:39;16.20;99.90
20777;DHT22;10548;47.504;8.248;2022-08-21T04:23:10;16.30;99.90
20777;DHT22;10548;47.504;8.248;2022-08-21T04:25:50;16.30;99.90
20777;DHT22;10548;47.504;8.248;2022-08-21T04:28:17;16.40;99.90
20777;DHT22;10548;47.504;8.248;2022-08-21T04:30:44;16.40;99.90
20777;DHT22;10548;47.504;8.248;2022-08-21T04:33:12;16.50;99.90
20777;DHT22;10548;47.504;8.248;2022-08-21T04:35:39;16.50;99.90
20777;DHT22;10548;47.504;8.248;2022-08-21T04:38:06;16.50;99.90
20777;DHT22;10548;47.504;8.248;2022-08-21T04:40:33;16.60;99.90
20777;DHT22;10548;47.504;8.248;2022-08-21T04:43:07;16.60;99.90
20777;DHT22;10548;47.504;8.248;2022-08-21T04:45:44;16.60;99.90
20777;DHT22;10548;47.504;8.248;2022-08-21T04:48:14;16.40;99.90
20777;DHT22;10548;47.504;8.248;2022-08-21T04:51:06;16.40;99.90
20777;DHT22;10548;47.504;8.248;2022-08-21T04:53:44;16.30;99.90
20777;DHT22;10548;47.504;8.248;2022-08-21T04:59:21;16.40;99.90
20777;DHT22;10548;47.504;8.248;2022-08-21T05:01:49;16.40;99.90
20777;DHT22;10548;47.504;8.248;2022-08-21T05:04:18;16.40;99.90
20777;DHT22;10548;47.504;8.248;2022-08-21T05:06:49;16.50;99.90
20777;DHT22;10548;47.504;8.248;2022-08-21T05:09:18;16.50;99.90
20777;DHT22;10548;47.504;8.248;2022-08-21T05:11:46;16.60;99.90
20777;DHT22;10548;47.504;8.248;2022-08-21T05:14:13;16.60;99.90
20777;DHT22;10548;47.504;8.248;2022-08-21T05:16:40;16.60;99.90
20777;DHT22;10548;47.504;8.248;2022-08-21T05:19:08;16.60;99.90
20777;DHT22;10548;47.504;8.248;2022-08-21T05:21:38;16.60;99.90
20777;DHT22;10548;47.504;8.248;2022-08-21T05:24:06;16.60;99.90
20777;DHT22;10548;47.504;8.248;2022-08-21T05:26:34;16.60;99.90
20777;DHT22;10548;47.504;8.248;2022-08-21T05:29:13;16.70;99.90
20777;DHT22;10548;47.504;8.248;2022-08-21T05:31:42;16.90;99.90
20777;DHT22;10548;47.504;8.248;2022-08-21T05:34:09;17.00;99.90
20777;DHT22;10548;47.504;8.248;2022-08-21T05:36:36;17.00;99.90
20777;DHT22;10548;47.504;8.248;2022-08-21T05:39:04;17.10;99.90
20777;DHT22;10548;47.504;8.248;2022-08-21T05:41:31;17.10;99.90
20777;DHT22;10548;47.504;8.248;2022-08-21T05:44:00;16.90;99.90
20777;DHT22;10548;47.504;8.248;2022-08-21T05:46:27;16.90;99.90
20777;DHT22;10548;47.504;8.248;2022-08-21T05:48:54;16.70;99.90
20777;DHT22;10548;47.504;8.248;2022-08-21T05:51:21;16.50;99.90
20777;DHT22;10548;47.504;8.248;2022-08-21T05:53:48;16.50;99.90
20777;DHT22;10548;47.504;8.248;2022-08-21T05:56:16;16.40;99.90
20777;DHT22;10548;47.504;8.248;2022-08-21T05:58:43;16.40;99.90
20777;DHT22;10548;47.504;8.248;2022-08-21T06:01:10;16.60;99.90
20777;DHT22;10548;47.504;8.248;2022-08-21T06:03:40;16.90;99.90
20777;DHT22;10548;47.504;8.248;2022-08-21T06:06:08;16.90;99.90
20777;DHT22;10548;47.504;8.248;2022-08-21T06:08:36;17.00;99.90
20777;DHT22;10548;47.504;8.248;2022-08-21T06:11:04;16.80;99.90
20777;DHT22;10548;47.504;8.248;2022-08-21T06:13:31;16.60;99.90
20777;DHT22;10548;47.504;8.248;2022-08-21T06:16:12;16.70;99.90
20777;DHT22;10548;47.504;8.248;2022-08-21T06:18:43;16.90;99.90
20777;DHT22;10548;47.504;8.248;2022-08-21T06:21:11;17.00;99.90
20777;DHT22;10548;47.504;8.248;2022-08-21T06:23:38;16.90;99.90
20777;DHT22;10548;47.504;8.248;2022-08-21T06:26:06;17.00;99.90
20777;DHT22;10548;47.504;8.248;2022-08-21T06:28:35;17.00;99.90
20777;DHT22;10548;47.504;8.248;2022-08-21T06:31:21;17.20;99.90
20777;DHT22;10548;47.504;8.248;2022-08-21T06:33:49;17.20;99.90
20777;DHT22;10548;47.504;8.248;2022-08-21T06:36:17;16.80;99.90
20777;DHT22;10548;47.504;8.248;2022-08-21T06:38:44;17.00;99.90
20777;DHT22;10548;47.504;8.248;2022-08-21T06:41:18;17.40;99.90
20777;DHT22;10548;47.504;8.248;2022-08-21T06:43:53;17.60;99.90
20777;DHT22;10548;47.504;8.248;2022-08-21T06:46:20;17.50;99.90
20777;DHT22;10548;47.504;8.248;2022-08-21T06:48:47;17.70;99.90
20777;DHT22;10548;47.504;8.248;2022-08-21T06:51:15;17.70;99.90
20777;DHT22;10548;47.504;8.248;2022-08-21T06:53:42;17.70;99.90
20777;DHT22;10548;47.504;8.248;2022-08-21T06:56:09;17.60;99.90
20777;DHT22;10548;47.504;8.248;2022-08-21T06:58:36;17.60;99.90
20777;DHT22;10548;47.504;8.248;2022-08-21T07:01:04;17.70;99.90
20777;DHT22;10548;47.504;8.248;2022-08-21T07:03:39;17.80;99.90
20777;DHT22;10548;47.504;8.248;2022-08-21T07:06:08;17.90;99.90
20777;DHT22;10548;47.504;8.248;2022-08-21T07:08:36;18.00;99.90
20777;DHT22;10548;47.504;8.248;2022-08-21T07:11:09;18.00;99.90
20777;DHT22;10548;47.504;8.248;2022-08-21T07:13:37;18.10;99.90
20777;DHT22;10548;47.504;8.248;2022-08-21T07:16:05;17.90;99.90
20777;DHT22;10548;47.504;8.248;2022-08-21T07:18:32;17.90;99.90
20777;DHT22;10548;47.504;8.248;2022-08-21T07:21:01;17.90;99.90
20777;DHT22;10548;47.504;8.248;2022-08-21T07:23:32;18.30;99.90
20777;DHT22;10548;47.504;8.248;2022-08-21T07:26:00;18.30;99.90
20777;DHT22;10548;47.504;8.248;2022-08-21T07:28:28;18.10;99.90
20777;DHT22;10548;47.504;8.248;2022-08-21T07:30:58;18.40;99.90
20777;DHT22;10548;47.504;8.248;2022-08-21T07:33:27;18.50;99.90
20777;DHT22;10548;47.504;8.248;2022-08-21T07:35:55;18.40;99.90
20777;DHT22;10548;47.504;8.248;2022-08-21T07:38:23;18.50;99.90
20777;DHT22;10548;47.504;8.248;2022-08-21T07:40:51;18.60;99.90
20777;DHT22;10548;47.504;8.248;2022-08-21T07:43:19;18.70;99.90
20777;DHT22;10548;47.504;8.248;2022-08-21T07:45:46;18.80;99.90
20777;DHT22;10548;47.504;8.248;2022-08-21T07:48:14;19.20;99.90
20777;DHT22;10548;47.504;8.248;2022-08-21T07:50:42;19.20;99.90
20777;DHT22;10548;47.504;8.248;2022-08-21T07:53:09;19.40;99.90
20777;DHT22;10548;47.504;8.248;2022-08-21T07:55:36;19.40;99.90
20777;DHT22;10548;47.504;8.248;2022-08-21T07:58:03;19.50;99.90
20777;DHT22;10548;47.504;8.248;2022-08-21T08:00:30;19.80;99.90
20777;DHT22;10548;47.504;8.248;2022-08-21T08:02:57;19.60;99.90
20777;DHT22;10548;47.504;8.248;2022-08-21T08:05:28;19.30;99.90
20777;DHT22;10548;47.504;8.248;2022-08-21T08:07:55;19.20;99.90
20777;DHT22;10548;47.504;8.248;2022-08-21T08:10:23;19.10;99.90
20777;DHT22;10548;47.504;8.248;2022-08-21T08:12:50;19.00;99.90
20777;DHT22;10548;47.504;8.248;2022-08-21T08:15:23;19.30;99.90
20777;DHT22;10548;47.504;8.248;2022-08-21T08:17:54;19.40;99.90
20777;DHT22;10548;47.504;8.248;2022-08-21T08:20:21;19.30;99.90
20777;DHT22;10548;47.504;8.248;2022-08-21T08:22:49;19.40;99.90
20777;DHT22;10548;47.504;8.248;2022-08-21T08:25:17;19.80;99.90
20777;DHT22;10548;47.504;8.248;2022-08-21T08:27:45;20.30;99.90
20777;DHT22;10548;47.504;8.248;2022-08-21T08:30:14;20.20;99.90
20777;DHT22;10548;47.504;8.248;2022-08-21T08:32:42;20.10;99.90
20777;DHT22;10548;47.504;8.248;2022-08-21T08:35:09;20.10;99.90
20777;DHT22;10548;47.504;8.248;2022-08-21T08:37:38;19.80;99.90
20777;DHT22;10548;47.504;8.248;2022-08-21T08:40:14;19.70;99.90
20777;DHT22;10548;47.504;8.248;2022-08-21T08:42:46;19.70;99.90
20777;DHT22;10548;47.504;8.248;2022-08-21T08:45:18;20.30;99.90
20777;DHT22;10548;47.504;8.248;2022-08-21T08:47:56;20.20;99.90
20777;DHT22;10548;47.504;8.248;2022-08-21T08:50:48;20.50;99.90
20777;DHT22;10548;47.504;8.248;2022-08-21T08:53:22;20.70;99.90
20777;DHT22;10548;47.504;8.248;2022-08-21T08:55:52;20.90;99.90
20777;DHT22;10548;47.504;8.248;2022-08-21T08:58:29;20.70;99.90
20777;DHT22;10548;47.504;8.248;2022-08-21T09:01:00;20.80;99.90
20777;DHT22;10548;47.504;8.248;2022-08-21T09:03:28;20.70;99.90
20777;DHT22;10548;47.504;8.248;2022-08-21T09:06:24;20.90;99.90
20777;DHT22;10548;47.504;8.248;2022-08-21T09:09:25;20.60;99.90
20777;DHT22;10548;47.504;8.248;2022-08-21T09:12:08;20.80;99.90
20777;DHT22;10548;47.504;8.248;2022-08-21T09:15:12;20.60;99.90
20777;DHT22;10548;47.504;8.248;2022-08-21T09:22:03;20.90;99.90
20777;DHT22;10548;47.504;8.248;2022-08-21T09:27:50;21.60;99.90
20777;DHT22;10548;47.504;8.248;2022-08-21T09:30:20;22.40;99.90
20777;DHT22;10548;47.504;8.248;2022-08-21T09:32:50;22.30;99.90
20777;DHT22;10548;47.504;8.248;2022-08-21T09:35:20;22.40;99.90
20777;DHT22;10548;47.504;8.248;2022-08-21T09:38:04;22.60;99.90
20777;DHT22;10548;47.504;8.248;2022-08-21T09:40:41;22.30;99.90
20777;DHT22;10548;47.504;8.248;2022-08-21T09:43:26;22.20;99.90
20777;DHT22;10548;47.504;8.248;2022-08-21T09:46:20;22.60;99.90
20777;DHT22;10548;47.504;8.248;2022-08-21T09:48:50;22.60;99.90
20777;DHT22;10548;47.504;8.248;2022-08-21T09:51:22;22.60;99.90
20777;DHT22;10548;47.504;8.248;2022-08-21T09:53:57;22.80;99.90
20777;DHT22;10548;47.504;8.248;2022-08-21T09:56:28;22.80;99.90
20777;DHT22;10548;47.504;8.248;2022-08-21T09:59:32;22.90;99.90
20777;DHT22;10548;47.504;8.248;2022-08-21T10:02:26;23.00;99.90
20777;DHT22;10548;47.504;8.248;2022-08-21T10:05:14;23.30;99.90
20777;DHT22;10548;47.504;8.248;2022-08-21T10:07:42;23.40;99.90
20777;DHT22;10548;47.504;8.248;2022-08-21T10:10:19;22.50;99.90
20777;DHT22;10548;47.504;8.248;2022-08-21T10:16:26;23.20;99.90
20777;DHT22;10548;47.504;8.248;2022-08-21T10:19:26;23.90;99.90
20777;DHT22;10548;47.504;8.248;2022-08-21T10:22:29;24.00;99.90
20777;DHT22;10548;47.504;8.248;2022-08-21T10:25:33;23.70;99.90
20777;DHT22;10548;47.504;8.248;2022-08-21T10:28:40;23.80;99.90
20777;DHT22;10548;47.504;8.248;2022-08-21T10:31:32;24.50;99.80
20777;DHT22;10548;47.504;8.248;2022-08-21T10:34:42;24.20;99.00
20777;DHT22;10548;47.504;8.248;2022-08-21T10:40:40;24.40;98.60
20777;DHT22;10548;47.504;8.248;2022-08-21T10:47:02;24.40;94.80
20777;DHT22;10548;47.504;8.248;2022-08-21T10:55:46;24.00;93.70
20777;DHT22;10548;47.504;8.248;2022-08-21T10:58:31;24.40;90.10
20777;DHT22;10548;47.504;8.248;2022-08-21T11:01:48;24.20;92.90
20777;DHT22;10548;47.504;8.248;2022-08-21T11:08:15;26.10;77.40
20777;DHT22;10548;47.504;8.248;2022-08-21T11:11:06;26.80;72.70
20777;DHT22;10548;47.504;8.248;2022-08-21T11:13:53;27.00;69.70
20777;DHT22;10548;47.504;8.248;2022-08-21T11:17:00;28.20;69.80
20777;DHT22;10548;47.504;8.248;2022-08-21T11:20:04;27.40;66.00
20777;DHT22;10548;47.504;8.248;2022-08-21T11:22:56;27.80;64.70
20777;DHT22;10548;47.504;8.248;2022-08-21T11:25:39;28.00;61.40
20777;DHT22;10548;47.504;8.248;2022-08-21T11:28:26;28.20;59.80
20777;DHT22;10548;47.504;8.248;2022-08-21T11:31:17;28.00;58.10
20777;DHT22;10548;47.504;8.248;2022-08-21T11:33:59;28.50;57.50
20777;DHT22;10548;47.504;8.248;2022-08-21T11:36:42;28.40;55.00
20777;DHT22;10548;47.504;8.248;2022-08-21T11:39:34;28.10;55.70
20777;DHT22;10548;47.504;8.248;2022-08-21T11:42:32;27.60;57.00
20777;DHT22;10548;47.504;8.248;2022-08-21T11:45:52;26.90;59.30
20777;DHT22;10548;47.504;8.248;2022-08-21T11:54:52;28.20;54.10
20777;DHT22;10548;47.504;8.248;2022-08-21T11:57:26;27.80;54.10
20777;DHT22;10548;47.504;8.248;2022-08-21T12:02:53;28.90;54.10
20777;DHT22;10548;47.504;8.248;2022-08-21T12:05:33;29.60;51.40
20777;DHT22;10548;47.504;8.248;2022-08-21T12:08:32;30.30;50.90
20777;DHT22;10548;47.504;8.248;2022-08-21T12:11:48;29.00;50.50
20777;DHT22;10548;47.504;8.248;2022-08-21T12:14:18;28.90;52.40
20777;DHT22;10548;47.504;8.248;2022-08-21T12:16:48;29.00;50.20
20777;DHT22;10548;47.504;8.248;2022-08-21T12:19:36;29.60;47.60
20777;DHT22;10548;47.504;8.248;2022-08-21T12:22:11;30.30;48.90
20777;DHT22;10548;47.504;8.248;2022-08-21T12:24:50;31.00;47.70
20777;DHT22;10548;47.504;8.248;2022-08-21T12:27:26;30.50;45.30
20777;DHT22;10548;47.504;8.248;2022-08-21T12:30:03;30.60;45.80
20777;DHT22;10548;47.504;8.248;2022-08-21T12:32:58;30.10;44.50
20777;DHT22;10548;47.504;8.248;2022-08-21T12:35:31;30.30;43.80
20777;DHT22;10548;47.504;8.248;2022-08-21T12:38:29;30.30;44.00
20777;DHT22;10548;47.504;8.248;2022-08-21T12:41:03;30.00;41.60
20777;DHT22;10548;47.504;8.248;2022-08-21T12:43:36;30.30;41.10
20777;DHT22;10548;47.504;8.248;2022-08-21T12:46:04;30.60;40.70
20777;DHT22;10548;47.504;8.248;2022-08-21T12:51:28;29.50;41.30
20777;DHT22;10548;47.504;8.248;2022-08-21T12:53:58;29.40;40.90
20777;DHT22;10548;47.504;8.248;2022-08-21T12:56:29;28.80;41.40
20777;DHT22;10548;47.504;8.248;2022-08-21T12:59:04;29.50;42.60
20777;DHT22;10548;47.504;8.248;2022-08-21T13:01:38;30.70;41.40
20777;DHT22;10548;47.504;8.248;2022-08-21T13:04:13;31.20;38.50
20777;DHT22;10548;47.504;8.248;2022-08-21T13:06:48;30.10;39.40
20777;DHT22;10548;47.504;8.248;2022-08-21T13:09:22;31.30;36.90
20777;DHT22;10548;47.504;8.248;2022-08-21T13:11:51;31.50;37.50
20777;DHT22;10548;47.504;8.248;2022-08-21T13:14:39;32.30;32.80
20777;DHT22;10548;47.504;8.248;2022-08-21T13:17:12;31.70;31.10
20777;DHT22;10548;47.504;8.248;2022-08-21T13:20:06;30.40;36.50
20777;DHT22;10548;47.504;8.248;2022-08-21T13:22:41;31.10;35.20
20777;DHT22;10548;47.504;8.248;2022-08-21T13:25:13;30.90;35.10
20777;DHT22;10548;47.504;8.248;2022-08-21T13:27:43;31.00;35.70
20777;DHT22;10548;47.504;8.248;2022-08-21T13:30:20;31.30;34.10
20777;DHT22;10548;47.504;8.248;2022-08-21T13:32:56;30.40;36.60
20777;DHT22;10548;47.504;8.248;2022-08-21T13:35:28;30.60;38.00
20777;DHT22;10548;47.504;8.248;2022-08-21T13:37:57;30.90;37.40
20777;DHT22;10548;47.504;8.248;2022-08-21T13:40:49;29.70;42.50
20777;DHT22;10548;47.504;8.248;2022-08-21T13:43:21;31.80;34.20
20777;DHT22;10548;47.504;8.248;2022-08-21T13:45:51;32.50;36.20
20777;DHT22;10548;47.504;8.248;2022-08-21T13:48:20;32.10;33.20
20777;DHT22;10548;47.504;8.248;2022-08-21T13:50:48;31.70;35.00
20777;DHT22;10548;47.504;8.248;2022-08-21T13:53:46;30.80;34.60
20777;DHT22;10548;47.504;8.248;2022-08-21T13:56:44;31.30;36.70
20777;DHT22;10548;47.504;8.248;2022-08-21T13:59:22;32.00;33.30
20777;DHT22;10548;47.504;8.248;2022-08-21T14:01:54;32.60;30.10
20777;DHT22;10548;47.504;8.248;2022-08-21T14:04:59;32.60;33.50
20777;DHT22;10548;47.504;8.248;2022-08-21T14:07:31;32.40;32.10
20777;DHT22;10548;47.504;8.248;2022-08-21T14:10:21;32.00;32.20
20777;DHT22;10548;47.504;8.248;2022-08-21T14:12:55;32.00;32.30
20777;DHT22;10548;47.504;8.248;2022-08-21T14:15:29;31.70;32.30
20777;DHT22;10548;47.504;8.248;2022-08-21T14:18:17;31.20;32.50
20777;DHT22;10548;47.504;8.248;2022-08-21T14:20:45;31.70;33.50
20777;DHT22;10548;47.504;8.248;2022-08-21T14:23:24;31.50;30.40
20777;DHT22;10548;47.504;8.248;2022-08-21T14:25:52;31.30;31.20
20777;DHT22;10548;47.504;8.248;2022-08-21T14:28:31;31.80;32.70
20777;DHT22;10548;47.504;8.248;2022-08-21T14:31:12;31.90;31.20
20777;DHT22;10548;47.504;8.248;2022-08-21T14:33:40;33.00;31.00
20777;DHT22;10548;47.504;8.248;2022-08-21T14:36:07;32.30;29.80
20777;DHT22;10548;47.504;8.248;2022-08-21T14:38:36;33.60;28.90
20777;DHT22;10548;47.504;8.248;2022-08-21T14:41:16;32.60;27.00
20777;DHT22;10548;47.504;8.248;2022-08-21T14:43:47;32.10;29.40
20777;DHT22;10548;47.504;8.248;2022-08-21T14:46:33;33.20;28.90
20777;DHT22;10548;47.504;8.248;2022-08-21T14:49:08;32.00;29.30
20777;DHT22;10548;47.504;8.248;2022-08-21T14:51:35;33.20;28.50
20777;DHT22;10548;47.504;8.248;2022-08-21T14:54:13;32.90;27.80
20777;DHT22;10548;47.504;8.248;2022-08-21T14:56:40;32.00;30.40
20777;DHT22;10548;47.504;8.248;2022-08-21T14:59:08;32.40;29.60
20777;DHT22;10548;47.504;8.248;2022-08-21T15:01:37;33.00;28.20
20777;DHT22;10548;47.504;8.248;2022-08-21T15:04:04;32.80;29.10
20777;DHT22;10548;47.504;8.248;2022-08-21T15:06:31;32.50;29.20
20777;DHT22;10548;47.504;8.248;2022-08-21T15:08:59;32.20;29.30
20777;DHT22;10548;47.504;8.248;2022-08-21T15:11:26;31.20;31.80
20777;DHT22;10548;47.504;8.248;2022-08-21T15:14:17;33.00;30.50
20777;DHT22;10548;47.504;8.248;2022-08-21T15:16:45;33.00;29.40
20777;DHT22;10548;47.504;8.248;2022-08-21T15:19:12;32.80;30.00
20777;DHT22;10548;47.504;8.248;2022-08-21T15:21:39;32.80;29.20
20777;DHT22;10548;47.504;8.248;2022-08-21T15:24:06;33.40;29.90
20777;DHT22;10548;47.504;8.248;2022-08-21T15:26:35;34.00;28.30
20777;DHT22;10548;47.504;8.248;2022-08-21T15:29:04;32.90;26.90
20777;DHT22;10548;47.504;8.248;2022-08-21T15:31:32;33.60;27.70
20777;DHT22;10548;47.504;8.248;2022-08-21T15:33:59;32.80;28.30
20777;DHT22;10548;47.504;8.248;2022-08-21T15:36:26;32.00;29.70
20777;DHT22;10548;47.504;8.248;2022-08-21T15:38:54;32.10;31.20
20777;DHT22;10548;47.504;8.248;2022-08-21T15:41:21;32.60;29.00
20777;DHT22;10548;47.504;8.248;2022-08-21T15:43:50;35.50;26.70
20777;DHT22;10548;47.504;8.248;2022-08-21T15:46:19;36.00;24.40
20777;DHT22;10548;47.504;8.248;2022-08-21T15:48:47;35.00;25.30
20777;DHT22;10548;47.504;8.248;2022-08-21T15:51:16;34.60;26.00
20777;DHT22;10548;47.504;8.248;2022-08-21T15:53:44;33.90;26.00
20777;DHT22;10548;47.504;8.248;2022-08-21T15:56:20;34.90;26.70
20777;DHT22;10548;47.504;8.248;2022-08-21T15:58:59;35.60;24.20
20777;DHT22;10548;47.504;8.248;2022-08-21T16:01:27;35.40;24.90
20777;DHT22;10548;47.504;8.248;2022-08-21T16:04:20;34.30;27.20
20777;DHT22;10548;47.504;8.248;2022-08-21T16:06:47;33.80;27.80
20777;DHT22;10548;47.504;8.248;2022-08-21T16:09:21;34.30;26.70
20777;DHT22;10548;47.504;8.248;2022-08-21T16:11:49;34.60;26.00
20777;DHT22;10548;47.504;8.248;2022-08-21T16:14:17;34.30;27.40
20777;DHT22;10548;47.504;8.248;2022-08-21T16:16:45;34.40;26.70
20777;DHT22;10548;47.504;8.248;2022-08-21T16:19:12;34.00;26.40
20777;DHT22;10548;47.504;8.248;2022-08-21T16:21:40;33.90;27.60
20777;DHT22;10548;47.504;8.248;2022-08-21T16:24:08;34.40;26.60
20777;DHT22;10548;47.504;8.248;2022-08-21T16:26:35;34.90;25.90
20777;DHT22;10548;47.504;8.248;2022-08-21T16:29:03;35.20;26.10
20777;DHT22;10548;47.504;8.248;2022-08-21T16:31:31;34.50;27.50
20777;DHT22;10548;47.504;8.248;2022-08-21T16:33:59;34.00;28.60
20777;DHT22;10548;47.504;8.248;2022-08-21T16:36:27;33.50;28.70
20777;DHT22;10548;47.504;8.248;2022-08-21T16:38:56;32.90;30.60
20777;DHT22;10548;47.504;8.248;2022-08-21T16:41:26;31.60;32.90
20777;DHT22;10548;47.504;8.248;2022-08-21T16:43:54;30.60;35.60
20777;DHT22;10548;47.504;8.248;2022-08-21T16:46:22;30.00;35.00
20777;DHT22;10548;47.504;8.248;2022-08-21T16:48:51;29.50;40.00